createdAt,value
2023-04-20T00:02:16.408Z,3.28
2023-04-20T00:04:43.325Z,3.27
2023-04-20T00:07:10.269Z,2.67
2023-04-20T00:09:36.766Z,2.95
2023-04-20T00:12:03.314Z,2.45
2023-04-20T00:14:29.919Z,2.47
2023-04-20T00:16:56.330Z,2.80
2023-04-20T00:19:23.153Z,2.30
2023-04-20T00:21:49.989Z,3.05
2023-04-20T00:24:16.389Z,2.67
2023-04-20T00:26:42.748Z,2.90
2023-04-20T00:29:09.242Z,2.65
2023-04-20T00:31:35.712Z,2.78
2023-04-20T00:34:02.169Z,3.38
2023-04-20T00:36:28.605Z,3.40
2023-04-20T00:38:54.998Z,2.88
2023-04-20T00:41:21.470Z,2.88
2023-04-20T00:43:52.729Z,3.17
2023-04-20T00:46:21.071Z,3.08
2023-04-20T00:48:50.048Z,3.00
2023-04-20T00:51:16.672Z,3.10
2023-04-20T00:53:43.110Z,3.35
2023-04-20T00:56:09.776Z,3.42
2023-04-20T00:58:36.465Z,3.43
2023-04-20T01:01:02.972Z,3.43
2023-04-20T01:03:29.592Z,3.40
2023-04-20T01:05:56.533Z,3.63
2023-04-20T01:08:27.553Z,3.83
2023-04-20T01:10:55.119Z,3.40
2023-04-20T01:15:48.181Z,3.28
2023-04-20T01:18:15.278Z,3.85
2023-04-20T01:20:41.781Z,3.78
2023-04-20T01:23:08.148Z,3.33
2023-04-20T01:25:34.545Z,3.55
2023-04-20T01:28:02.018Z,4.03
2023-04-20T01:30:29.169Z,3.30
2023-04-20T01:32:55.779Z,3.58
2023-04-20T01:35:22.223Z,4.05
2023-04-20T01:37:48.671Z,3.50
2023-04-20T01:40:15.948Z,3.75
2023-04-20T01:42:42.348Z,3.38
2023-04-20T01:45:09.200Z,3.88
2023-04-20T01:47:35.970Z,3.20
2023-04-20T01:50:02.569Z,3.95
2023-04-20T01:52:28.925Z,3.85
2023-04-20T01:54:55.309Z,3.80
2023-04-20T01:57:21.707Z,3.17
2023-04-20T01:59:48.797Z,3.67
2023-04-20T02:02:15.359Z,3.70
2023-04-20T02:04:41.773Z,3.33
2023-04-20T02:07:08.135Z,3.42
2023-04-20T02:09:34.598Z,3.65
2023-04-20T02:12:02.119Z,3.63
2023-04-20T02:16:54.949Z,4.13
2023-04-20T02:19:21.426Z,3.55
2023-04-20T02:21:47.829Z,4.03
2023-04-20T02:24:14.208Z,4.18
2023-04-20T02:26:40.619Z,4.13
2023-04-20T02:29:07.010Z,3.72
2023-04-20T02:31:34.364Z,3.30
2023-04-20T02:34:00.899Z,3.80
2023-04-20T02:36:28.148Z,3.45
2023-04-20T02:38:54.535Z,3.60
2023-04-20T02:41:21.114Z,3.35
2023-04-20T02:43:47.497Z,3.30
2023-04-20T02:46:13.950Z,3.75
2023-04-20T02:48:40.561Z,4.07
2023-04-20T02:51:07.045Z,3.60
2023-04-20T02:53:33.485Z,3.42
2023-04-20T02:55:59.886Z,3.72
2023-04-20T02:58:26.540Z,3.40
2023-04-20T03:00:59.393Z,4.23
2023-04-20T03:03:26.041Z,3.90
2023-04-20T03:05:52.693Z,4.03
2023-04-20T03:08:19.077Z,3.75
2023-04-20T03:10:45.545Z,3.83
2023-04-20T03:13:11.921Z,4.10
2023-04-20T03:15:38.344Z,3.63
2023-04-20T03:18:05.018Z,4.03
2023-04-20T03:20:32.098Z,3.60
2023-04-20T03:22:58.543Z,3.28
2023-04-20T03:25:25.101Z,3.65
2023-04-20T03:27:51.456Z,7.43
2023-04-20T03:30:17.804Z,3.78
2023-04-20T03:32:45.075Z,3.67
2023-04-20T03:35:11.533Z,3.85
2023-04-20T03:37:38.253Z,4.05
2023-04-20T03:40:07.042Z,3.93
2023-04-20T03:42:33.497Z,3.22
2023-04-20T03:44:59.992Z,3.45
2023-04-20T03:47:26.458Z,3.95
2023-04-20T03:49:52.908Z,3.85
2023-04-20T03:52:19.358Z,3.83
2023-04-20T03:54:45.881Z,4.30
2023-04-20T03:57:13.342Z,4.18
2023-04-20T03:59:39.691Z,3.78
2023-04-20T04:02:06.307Z,4.10
2023-04-20T04:04:33.257Z,4.13
2023-04-20T04:06:59.864Z,4.38
2023-04-20T04:09:26.665Z,4.68
2023-04-20T04:11:53.087Z,4.65
2023-04-20T04:14:19.470Z,5.22
2023-04-20T04:16:46.336Z,4.75
2023-04-20T04:19:12.792Z,5.45
2023-04-20T04:21:39.220Z,4.47
2023-04-20T04:24:05.908Z,4.97
2023-04-20T04:26:33.604Z,4.93
2023-04-20T04:29:00.042Z,4.72
2023-04-20T04:31:26.625Z,4.40
2023-04-20T04:33:53.144Z,4.20
2023-04-20T04:36:19.880Z,4.43
2023-04-20T04:38:46.385Z,4.53
2023-04-20T04:41:13.090Z,4.70
2023-04-20T04:43:41.049Z,4.50
2023-04-20T04:46:11.508Z,4.38
2023-04-20T04:48:40.521Z,3.78
2023-04-20T04:51:06.961Z,4.70
2023-04-20T04:53:33.423Z,4.55
2023-04-20T04:56:00.023Z,4.03
2023-04-20T04:58:26.499Z,3.83
2023-04-20T05:00:53.014Z,4.40
2023-04-20T05:03:19.525Z,3.65
2023-04-20T05:05:46.150Z,4.38
2023-04-20T05:08:12.799Z,3.97
2023-04-20T05:10:39.244Z,3.47
2023-04-20T05:13:05.829Z,3.80
2023-04-20T05:15:32.433Z,3.83
2023-04-20T05:17:59.163Z,3.67
2023-04-20T05:20:25.636Z,4.03
2023-04-20T05:22:52.177Z,3.97
2023-04-20T05:25:18.877Z,3.17
2023-04-20T05:27:45.400Z,3.40
2023-04-20T05:30:20.269Z,3.60
2023-04-20T05:32:51.090Z,3.50
2023-04-20T05:35:18.737Z,3.60
2023-04-20T05:37:45.339Z,3.60
2023-04-20T05:40:12.000Z,4.10
2023-04-20T05:42:38.526Z,3.50
2023-04-20T05:45:05.567Z,4.05
2023-04-20T05:47:32.131Z,4.30
2023-04-20T05:49:58.582Z,4.00
2023-04-20T05:52:25.106Z,4.03
2023-04-20T05:54:51.513Z,4.40
2023-04-20T05:57:17.882Z,3.75
2023-04-20T05:59:44.953Z,3.80
2023-04-20T06:02:11.461Z,4.40
2023-04-20T06:04:38.270Z,4.43
2023-04-20T06:07:04.798Z,4.32
2023-04-20T06:09:31.313Z,4.30
2023-04-20T06:14:26.706Z,3.97
2023-04-20T06:16:53.143Z,3.92
2023-04-20T06:19:19.613Z,4.55
2023-04-20T06:21:46.458Z,4.40
2023-04-20T06:24:12.918Z,4.68
2023-04-20T06:26:39.377Z,4.30
2023-04-20T06:29:05.789Z,4.60
2023-04-20T06:31:32.589Z,4.57
2023-04-20T06:33:59.052Z,4.03
2023-04-20T06:36:25.756Z,4.70
2023-04-20T06:38:52.310Z,4.67
2023-04-20T06:41:18.692Z,4.32
2023-04-20T06:43:46.253Z,4.50
2023-04-20T06:48:39.170Z,4.07
2023-04-20T06:51:05.911Z,4.25
2023-04-20T06:53:32.402Z,4.50
2023-04-20T06:55:58.987Z,4.50
2023-04-20T06:58:25.540Z,4.45
2023-04-20T07:00:52.398Z,4.82
2023-04-20T07:03:19.579Z,7.03
2023-04-20T07:05:46.737Z,4.47
2023-04-20T07:08:15.548Z,5.40
2023-04-20T07:10:42.019Z,4.65
2023-04-20T07:13:08.428Z,4.80
2023-04-20T07:15:34.793Z,4.05
2023-04-20T07:18:01.306Z,4.28
2023-04-20T07:20:27.712Z,4.70
2023-04-20T07:22:54.159Z,3.95
2023-04-20T07:25:20.649Z,4.75
2023-04-20T07:27:47.133Z,4.97
2023-04-20T07:30:13.924Z,4.55
2023-04-20T07:32:41.583Z,4.93
2023-04-20T07:35:09.149Z,4.80
2023-04-20T07:40:06.463Z,5.00
2023-04-20T07:42:34.875Z,4.45
2023-04-20T07:45:01.574Z,3.75
2023-04-20T07:47:28.074Z,5.97
2023-04-20T07:49:54.873Z,4.65
2023-04-20T07:52:21.384Z,4.55
2023-04-20T07:54:47.899Z,5.30
2023-04-20T07:57:15.163Z,4.35
2023-04-20T07:59:41.660Z,4.55
2023-04-20T08:02:08.674Z,4.25
2023-04-20T08:04:38.762Z,4.82
2023-04-20T08:07:05.508Z,4.72
2023-04-20T08:09:31.925Z,4.68
2023-04-20T08:11:58.530Z,5.03
2023-04-20T08:14:25.007Z,5.33
2023-04-20T08:16:51.477Z,4.63
2023-04-20T08:19:18.100Z,4.10
2023-04-20T08:21:44.537Z,4.20
2023-04-20T08:24:11.302Z,4.55
2023-04-20T08:26:38.709Z,4.55
2023-04-20T08:29:05.682Z,4.55
2023-04-20T08:31:32.477Z,4.20
2023-04-20T08:33:59.004Z,4.75
2023-04-20T08:36:27.972Z,4.07
2023-04-20T08:39:19.757Z,5.00
2023-04-20T08:41:47.057Z,5.22
2023-04-20T08:44:13.748Z,4.90
2023-04-20T08:46:45.622Z,4.03
2023-04-20T08:49:13.175Z,4.47
2023-04-20T08:54:06.938Z,6.88
2023-04-20T08:56:38.393Z,5.07
2023-04-20T08:59:05.756Z,4.32
2023-04-20T09:01:35.607Z,4.05
2023-04-20T09:04:03.585Z,4.53
2023-04-20T09:06:31.178Z,4.80
2023-04-20T09:11:29.616Z,3.92
2023-04-20T09:14:06.761Z,4.35
2023-04-20T09:16:34.724Z,4.53
2023-04-20T09:19:01.332Z,3.92
2023-04-20T09:21:28.877Z,4.30
2023-04-20T09:24:08.407Z,4.50
2023-04-20T09:26:36.164Z,3.97
2023-04-20T09:29:03.997Z,4.07
2023-04-20T09:31:30.608Z,4.40
2023-04-20T09:34:02.144Z,4.43
2023-04-20T09:36:37.332Z,4.07
2023-04-20T09:39:10.256Z,4.10
2023-04-20T09:41:38.332Z,4.32
2023-04-20T09:44:06.075Z,4.55
2023-04-20T09:46:35.261Z,4.07
2023-04-20T09:49:04.750Z,4.43
2023-04-20T09:51:33.182Z,4.13
2023-04-20T09:54:01.211Z,4.30
2023-04-20T09:56:28.737Z,4.43
2023-04-20T10:01:23.471Z,4.20
2023-04-20T10:03:53.837Z,4.30
2023-04-20T10:06:24.615Z,3.90
2023-04-20T10:08:52.167Z,4.47
2023-04-20T10:11:52.812Z,4.15
2023-04-20T10:14:25.635Z,3.55
2023-04-20T10:17:03.273Z,3.92
2023-04-20T10:19:39.787Z,4.28
2023-04-20T10:22:07.816Z,4.20
2023-04-20T10:24:34.588Z,4.22
2023-04-20T10:27:02.827Z,4.43
2023-04-20T10:29:29.704Z,4.47
2023-04-20T10:31:56.654Z,4.65
2023-04-20T10:34:59.941Z,4.60
2023-04-20T10:37:26.701Z,4.57
2023-04-20T10:39:53.200Z,4.57
2023-04-20T10:42:19.626Z,4.80
2023-04-20T10:44:53.986Z,4.90
2023-04-20T10:47:30.924Z,4.82
2023-04-20T10:50:16.492Z,4.82
2023-04-20T10:52:44.155Z,4.80
2023-04-20T10:55:22.692Z,5.18
2023-04-20T10:57:50.581Z,4.55
2023-04-20T11:00:18.718Z,5.00
2023-04-20T11:02:52.449Z,5.20
2023-04-20T11:05:20.524Z,4.65
2023-04-20T11:07:58.040Z,7.85
2023-04-20T11:10:38.115Z,5.50
2023-04-20T11:13:04.580Z,4.78
2023-04-20T11:15:34.249Z,5.30
2023-04-20T11:18:12.007Z,5.10
2023-04-20T11:20:52.255Z,6.25
2023-04-20T11:23:23.491Z,6.22
2023-04-20T11:25:54.609Z,5.18
2023-04-20T11:28:21.457Z,5.47
2023-04-20T11:30:49.614Z,5.53
2023-04-20T11:33:27.644Z,5.50
2023-04-20T11:38:35.003Z,4.68
2023-04-20T11:41:04.792Z,5.30
2023-04-20T11:43:32.548Z,6.93
2023-04-20T11:46:01.973Z,6.82
2023-04-20T11:48:31.815Z,7.38
2023-04-20T11:50:58.809Z,10.77
2023-04-20T11:53:25.400Z,6.85
2023-04-20T11:55:52.048Z,11.60
2023-04-20T11:58:18.479Z,7.13
2023-04-20T12:00:44.916Z,7.22
2023-04-20T12:03:11.584Z,5.23
2023-04-20T12:05:38.247Z,7.55
2023-04-20T12:08:05.721Z,5.50
2023-04-20T12:13:00.017Z,5.70
2023-04-20T12:15:26.944Z,5.32
2023-04-20T12:17:53.579Z,4.90
2023-04-20T12:20:20.136Z,5.40
2023-04-20T12:22:46.537Z,7.43
2023-04-20T12:25:13.104Z,5.50
2023-04-20T12:27:39.819Z,5.37
2023-04-20T12:30:07.573Z,6.07
2023-04-20T12:32:33.997Z,4.78
2023-04-20T12:35:00.484Z,6.03
2023-04-20T12:37:27.492Z,5.23
2023-04-20T12:39:53.894Z,5.30
2023-04-20T12:42:20.311Z,5.15
2023-04-20T12:44:46.721Z,5.60
2023-04-20T12:47:13.738Z,5.60
2023-04-20T12:49:40.262Z,5.65
2023-04-20T12:52:08.155Z,5.53
2023-04-20T12:54:34.750Z,6.28
2023-04-20T12:57:02.486Z,5.83
2023-04-20T12:59:29.082Z,6.13
2023-04-20T13:01:55.557Z,5.35
2023-04-20T13:04:22.501Z,5.53
2023-04-20T13:06:49.306Z,5.75
2023-04-20T13:09:15.749Z,6.77
2023-04-20T13:11:42.138Z,8.00
2023-04-20T13:14:08.509Z,6.10
2023-04-20T13:16:34.985Z,6.22
2023-04-20T13:19:01.551Z,6.37
2023-04-20T13:21:28.058Z,6.90
2023-04-20T13:23:56.220Z,6.68
2023-04-20T13:26:23.385Z,7.38
2023-04-20T13:28:49.776Z,6.57
2023-04-20T13:31:16.354Z,7.03
2023-04-20T13:33:42.826Z,6.60
2023-04-20T13:36:09.458Z,6.30
2023-04-20T13:38:35.974Z,5.75
2023-04-20T13:41:02.454Z,5.80
2023-04-20T13:43:28.850Z,5.28
2023-04-20T13:45:55.367Z,5.45
2023-04-20T13:48:21.756Z,5.97
2023-04-20T13:50:48.160Z,5.13
2023-04-20T13:53:14.545Z,5.40
2023-04-20T13:55:40.908Z,5.10
2023-04-20T13:58:07.320Z,5.40
2023-04-20T14:00:34.760Z,5.70
2023-04-20T14:03:02.232Z,5.18
2023-04-20T14:05:28.903Z,5.53
2023-04-20T14:07:55.523Z,5.35
2023-04-20T14:10:22.044Z,4.97
2023-04-20T14:12:48.541Z,5.40
2023-04-20T14:15:15.093Z,4.70
2023-04-20T14:17:41.550Z,5.15
2023-04-20T14:20:09.375Z,5.03
2023-04-20T14:22:37.319Z,4.53
2023-04-20T14:25:04.906Z,4.50
2023-04-20T14:27:31.474Z,5.60
2023-04-20T14:29:58.291Z,5.32
2023-04-20T14:32:24.730Z,5.13
2023-04-20T14:34:51.321Z,5.22
2023-04-20T14:37:17.791Z,5.35
2023-04-20T14:39:44.165Z,5.18
2023-04-20T14:42:10.623Z,5.60
2023-04-20T14:44:37.011Z,5.85
2023-04-20T14:47:03.492Z,5.72
2023-04-20T14:49:30.038Z,5.38
2023-04-20T14:51:56.470Z,5.30
2023-04-20T14:54:22.902Z,5.07
2023-04-20T14:56:49.315Z,5.60
2023-04-20T14:59:15.710Z,5.50
2023-04-20T15:01:51.584Z,5.82
2023-04-20T15:04:21.740Z,5.65
2023-04-20T15:06:48.411Z,5.18
2023-04-20T15:09:14.961Z,6.25
2023-04-20T15:11:41.332Z,5.75
2023-04-20T15:14:07.705Z,5.03
2023-04-20T15:16:34.279Z,5.32
2023-04-20T15:19:00.686Z,5.43
2023-04-20T15:21:27.574Z,5.65
2023-04-20T15:23:53.978Z,5.30
2023-04-20T15:26:20.826Z,6.07
2023-04-20T15:28:47.538Z,5.90
2023-04-20T15:31:16.521Z,6.28
2023-04-20T15:33:44.812Z,6.75
2023-04-20T15:36:11.396Z,5.68
2023-04-20T15:38:37.778Z,6.20
2023-04-20T15:41:04.242Z,6.00
2023-04-20T15:43:30.725Z,6.53
2023-04-20T15:45:57.232Z,6.32
2023-04-20T15:48:23.645Z,6.03
2023-04-20T15:50:51.811Z,6.00
2023-04-20T15:53:19.566Z,5.40
2023-04-20T15:55:46.289Z,5.90
2023-04-20T15:58:12.813Z,5.78
2023-04-20T16:00:41.346Z,5.70
2023-04-20T16:03:07.887Z,6.45
2023-04-20T16:05:34.541Z,6.03
2023-04-20T16:08:01.325Z,5.68
2023-04-20T16:10:27.876Z,5.90
2023-04-20T16:12:54.415Z,6.07
2023-04-20T16:15:21.150Z,5.80
2023-04-20T16:17:47.704Z,5.72
2023-04-20T16:20:14.278Z,5.43
2023-04-20T16:22:40.942Z,5.90
2023-04-20T16:25:07.801Z,5.40
2023-04-20T16:27:34.185Z,6.18
2023-04-20T16:30:00.810Z,5.37
2023-04-20T16:32:27.971Z,5.45
2023-04-20T16:34:54.469Z,5.10
2023-04-20T16:37:20.937Z,4.93
2023-04-20T16:39:47.401Z,5.18
2023-04-20T16:42:13.855Z,4.97
2023-04-20T16:44:41.838Z,5.35
2023-04-20T16:47:08.594Z,4.70
2023-04-20T16:49:35.852Z,4.05
2023-04-20T16:52:02.322Z,4.85
2023-04-20T16:54:28.768Z,4.75
2023-04-20T16:56:55.900Z,5.13
2023-04-20T16:59:22.314Z,5.10
2023-04-20T17:01:49.231Z,4.40
2023-04-20T17:04:17.581Z,4.70
2023-04-20T17:06:46.313Z,5.32
2023-04-20T17:09:12.740Z,5.50
2023-04-20T17:11:39.782Z,5.20
2023-04-20T17:14:07.270Z,5.72
2023-04-20T17:16:33.793Z,5.63
2023-04-20T17:19:00.631Z,5.77
2023-04-20T17:21:28.914Z,5.70
2023-04-20T17:23:56.238Z,6.00
2023-04-20T17:28:49.227Z,6.05
2023-04-20T17:31:15.712Z,5.22
2023-04-20T17:33:43.349Z,5.87
2023-04-20T17:36:09.878Z,6.30
2023-04-20T17:38:38.349Z,6.00
2023-04-20T17:41:04.914Z,5.68
2023-04-20T17:43:31.422Z,6.40
2023-04-20T17:46:00.786Z,6.83
2023-04-20T17:48:27.692Z,6.65
2023-04-20T17:50:54.483Z,6.63
2023-04-20T17:53:21.227Z,6.15
2023-04-20T17:55:47.688Z,6.55
2023-04-20T17:58:14.189Z,6.60
2023-04-20T18:00:40.840Z,6.63
2023-04-20T18:03:07.434Z,7.13
2023-04-20T18:05:33.991Z,6.93
2023-04-20T18:08:00.697Z,7.07
2023-04-20T18:10:27.900Z,8.02
2023-04-20T18:12:54.399Z,7.15
2023-04-20T18:15:20.936Z,7.45
2023-04-20T18:17:47.444Z,8.23
2023-04-20T18:20:13.946Z,7.93
2023-04-20T18:22:40.515Z,8.73
2023-04-20T18:25:07.175Z,8.47
2023-04-20T18:27:33.645Z,8.52
2023-04-20T18:30:00.145Z,9.03
2023-04-20T18:32:27.493Z,11.18
2023-04-20T18:37:20.608Z,9.30
2023-04-20T18:39:47.038Z,8.40
2023-04-20T18:42:13.508Z,9.60
2023-04-20T18:44:40.619Z,9.43
2023-04-20T18:47:07.190Z,10.20
2023-04-20T18:49:34.933Z,10.05
2023-04-20T18:52:01.535Z,9.65
2023-04-20T18:54:28.109Z,10.37
2023-04-20T18:56:58.340Z,9.93
2023-04-20T18:59:25.028Z,9.00
2023-04-20T19:01:52.482Z,10.63
2023-04-20T19:04:19.737Z,10.38
2023-04-20T19:06:46.402Z,9.88
2023-04-20T19:09:12.897Z,9.43
2023-04-20T19:11:39.323Z,10.63
2023-04-20T19:14:05.890Z,9.88
2023-04-20T19:16:34.087Z,9.23
2023-04-20T19:19:01.126Z,8.93
2023-04-20T19:21:27.704Z,9.82
2023-04-20T19:23:54.138Z,10.33
2023-04-20T19:26:20.626Z,10.38
2023-04-20T19:28:47.151Z,10.70
2023-04-20T19:31:13.897Z,9.88
2023-04-20T19:33:40.766Z,10.65
2023-04-20T19:36:08.249Z,9.57
2023-04-20T19:41:01.705Z,10.18
2023-04-20T19:43:28.106Z,9.98
2023-04-20T19:45:58.853Z,10.90
2023-04-20T19:48:26.022Z,10.32
2023-04-20T19:50:52.984Z,11.10
2023-04-20T19:53:19.464Z,10.87
2023-04-20T19:55:45.918Z,11.05
2023-04-20T19:58:13.347Z,10.40
2023-04-20T20:00:40.054Z,10.65
2023-04-20T20:03:08.143Z,10.07
2023-04-20T20:05:35.115Z,9.80
2023-04-20T20:08:01.655Z,10.68
2023-04-20T20:10:28.091Z,11.33
2023-04-20T20:12:54.559Z,10.90
2023-04-20T20:15:21.012Z,10.88
2023-04-20T20:17:47.731Z,10.57
2023-04-20T20:20:15.586Z,9.98
2023-04-20T20:22:48.134Z,10.48
2023-04-20T20:25:20.945Z,11.27
2023-04-20T20:27:47.443Z,11.18
2023-04-20T20:30:14.730Z,11.32
2023-04-20T20:32:41.627Z,11.68
2023-04-20T20:35:11.439Z,10.52
2023-04-20T20:37:38.828Z,10.40
2023-04-20T20:40:06.915Z,10.93
2023-04-20T20:42:34.069Z,10.05
2023-04-20T20:45:01.002Z,11.88
2023-04-20T20:47:27.560Z,10.50
2023-04-20T20:49:54.100Z,10.47
2023-04-20T20:52:21.107Z,11.73
2023-04-20T20:54:47.556Z,10.35
2023-04-20T20:57:13.929Z,10.32
2023-04-20T20:59:40.368Z,11.32
2023-04-20T21:02:06.819Z,10.65
2023-04-20T21:04:33.304Z,11.18
2023-04-20T21:06:59.739Z,11.35
2023-04-20T21:09:26.493Z,11.13
2023-04-20T21:11:53.137Z,11.13
2023-04-20T21:14:19.650Z,10.37
2023-04-20T21:16:46.166Z,11.40
2023-04-20T21:19:12.612Z,10.43
2023-04-20T21:21:38.997Z,11.40
2023-04-20T21:24:05.463Z,10.82
2023-04-20T21:26:35.721Z,11.63
2023-04-20T21:29:03.438Z,11.15
2023-04-20T21:31:30.636Z,10.93
2023-04-20T21:33:57.628Z,12.05
2023-04-20T21:36:24.075Z,11.77
2023-04-20T21:38:50.544Z,11.55
2023-04-20T21:41:17.035Z,11.88
2023-04-20T21:43:43.663Z,12.68
2023-04-20T21:46:14.569Z,12.20
2023-04-20T21:48:41.074Z,13.23
2023-04-20T21:51:07.579Z,13.52
2023-04-20T21:53:34.073Z,13.95
2023-04-20T21:56:00.444Z,13.70
2023-04-20T21:58:26.826Z,14.23
2023-04-20T22:00:53.194Z,14.00
2023-04-20T22:03:19.715Z,14.65
2023-04-20T22:05:46.153Z,15.00
2023-04-20T22:08:14.607Z,15.18
2023-04-20T22:10:41.500Z,14.43
2023-04-20T22:13:07.860Z,15.10
2023-04-20T22:15:34.271Z,14.43
2023-04-20T22:18:00.796Z,14.88
2023-04-20T22:20:27.761Z,14.90
2023-04-20T22:22:54.157Z,16.17
2023-04-20T22:25:20.765Z,16.02
2023-04-20T22:27:47.153Z,14.77
2023-04-20T22:30:13.671Z,14.80
2023-04-20T22:32:40.949Z,16.70
2023-04-20T22:35:07.933Z,17.15
2023-04-20T22:37:34.649Z,15.52
2023-04-20T22:40:01.187Z,17.10
2023-04-20T22:42:27.671Z,18.93
2023-04-20T22:44:54.082Z,16.55
2023-04-20T22:47:20.542Z,17.55
2023-04-20T22:49:47.369Z,17.77
2023-04-20T22:52:13.807Z,17.10
2023-04-20T22:54:40.336Z,16.20
2023-04-20T22:57:06.709Z,17.35
2023-04-20T22:59:33.130Z,17.70
2023-04-20T23:01:59.666Z,18.35
2023-04-20T23:04:26.510Z,18.73
2023-04-20T23:06:52.990Z,18.40
2023-04-20T23:09:20.669Z,19.87
2023-04-20T23:11:47.387Z,20.13
2023-04-20T23:14:14.106Z,19.77
2023-04-20T23:16:41.168Z,18.65
2023-04-20T23:19:07.721Z,20.52
2023-04-20T23:21:34.294Z,20.25
2023-04-20T23:24:00.639Z,20.37
2023-04-20T23:26:27.063Z,19.25
2023-04-20T23:28:53.555Z,18.58
2023-04-20T23:31:20.558Z,20.20
2023-04-20T23:33:47.824Z,18.73
2023-04-20T23:36:14.336Z,19.10
2023-04-20T23:38:40.886Z,20.17
2023-04-20T23:41:11.678Z,19.27
2023-04-20T23:43:38.825Z,19.02
2023-04-20T23:46:06.414Z,19.38
2023-04-20T23:48:33.311Z,17.40
2023-04-20T23:51:00.470Z,18.80
2023-04-20T23:53:27.318Z,18.42
2023-04-20T23:55:55.613Z,18.65
2023-04-20T23:58:28.817Z,16.52
